KCWC

Kickapoo Downtown Airport

Wichita Falls, Texas, USA
METAR KCWC 201615Z AUTO 33015G20KT 10SM CLR 26/14 A3009 RMK AO2 T02620144
Observed Flight Rules
Aug-20 @ 16:15 UTC (9 minutes ago) Visual Flight Rules
Wind Visibility Clouds
330° at 15 knots
 Gusting to 20 knots
10 miles
  • Clear skies
Temperatures Readings
Current 26°C / 79°F
Dewpoint 14°C / 57°F
Humidity 48%
Altimeter 30.09" Hg
Pressure 1019 hPa
Elevation 305
METAR KCWC 201615Z AUTO 33015G20KT 10SM CLR 26/14 A3009 RMK AO2 T02620144
Observed Flight Rules
Aug-20 @ 16:15 UTC
(9 minutes ago)
VFR
Wind Visibility
330° at 15 knots
 Gusting to 20 knots
10 miles
Clouds
  • Clear skies
Temperature Dewpoint
26°C / 79°F 14°C / 57°F
Humidity Altimeter Pressure
48% 30.09" Hg 1019 hPa